sensor_id;sensor_type;location;lat;lon;timestamp;pressure;altitude;pressure_sealevel;temperature;humidity
12913;BME280;6524;51.368;11.984;2023-08-06T04:05:02;155712.50;;;13.99;67.02
12913;BME280;6524;51.368;11.984;2023-08-06T04:10:04;155666.72;;;13.81;67.68
12913;BME280;6524;51.368;11.984;2023-08-06T04:15:05;155687.63;;;13.89;68.30
12913;BME280;6524;51.368;11.984;2023-08-06T04:20:07;155685.03;;;13.88;69.62
12913;BME280;6524;51.368;11.984;2023-08-06T04:25:08;155665.38;;;13.81;70.31
12913;BME280;6524;51.368;11.984;2023-08-06T04:30:09;155678.47;;;13.86;70.26
12913;BME280;6524;51.368;11.984;2023-08-06T04:35:11;155698.09;;;13.93;70.48
12913;BME280;6524;51.368;11.984;2023-08-06T04:40:12;155742.63;;;14.11;69.86
12913;BME280;6524;51.368;11.984;2023-08-06T04:45:13;155719.06;;;14.02;70.39
12913;BME280;6524;51.368;11.984;2023-08-06T04:50:15;155674.56;;;13.84;70.75
12913;BME280;6524;51.368;11.984;2023-08-06T04:55:16;155679.78;;;13.86;70.78
12913;BME280;6524;51.368;11.984;2023-08-06T05:00:17;155662.78;;;13.80;71.88
12913;BME280;6524;51.368;11.984;2023-08-06T05:05:17;155653.63;;;13.76;72.21
12913;BME280;6524;51.368;11.984;2023-08-06T05:10:18;155611.75;;;13.60;72.82
12913;BME280;6524;51.368;11.984;2023-08-06T05:15:18;155605.19;;;13.57;73.33
12913;BME280;6524;51.368;11.984;2023-08-06T05:20:20;155661.47;;;13.79;72.75
12913;BME280;6524;51.368;11.984;2023-08-06T05:25:20;155690.25;;;13.90;72.01
12913;BME280;6524;51.368;11.984;2023-08-06T05:30:21;155645.75;;;13.73;72.93
12913;BME280;6524;51.368;11.984;2023-08-06T05:35:22;155687.63;;;13.89;72.52
12913;BME280;6524;51.368;11.984;2023-08-06T05:40:23;155742.63;;;14.11;71.19
12913;BME280;6524;51.368;11.984;2023-08-06T05:45:25;155708.59;;;13.98;71.61
12913;BME280;6524;51.368;11.984;2023-08-06T05:50:26;155737.38;;;14.09;71.41
12913;BME280;6524;51.368;11.984;2023-08-06T05:55:26;155805.53;;;14.35;70.90
12913;BME280;6524;51.368;11.984;2023-08-06T06:00:27;155761.00;;;14.18;70.69
12913;BME280;6524;51.368;11.984;2023-08-06T06:05:28;155821.25;;;14.42;70.16
12913;BME280;6524;51.368;11.984;2023-08-06T06:10:28;155836.97;;;14.48;70.16
12913;BME280;6524;51.368;11.984;2023-08-06T06:15:29;155834.31;;;14.47;69.69
12913;BME280;6524;51.368;11.984;2023-08-06T06:20:32;155852.69;;;14.54;69.19
12913;BME280;6524;51.368;11.984;2023-08-06T06:25:32;155884.13;;;14.66;68.96
12913;BME280;6524;51.368;11.984;2023-08-06T06:30:33;156002.03;;;15.12;68.34
12913;BME280;6524;51.368;11.984;2023-08-06T06:35:33;156068.91;;;15.38;66.35
12913;BME280;6524;51.368;11.984;2023-08-06T06:40:34;156106.88;;;15.53;65.88
12913;BME280;6524;51.368;11.984;2023-08-06T06:45:34;156114.72;;;15.56;65.50
12913;BME280;6524;51.368;11.984;2023-08-06T06:50:35;156161.97;;;15.74;64.69
12913;BME280;6524;51.368;11.984;2023-08-06T06:55:36;156146.19;;;15.68;64.60
12913;BME280;6524;51.368;11.984;2023-08-06T07:00:37;156180.31;;;15.82;64.52
12913;BME280;6524;51.368;11.984;2023-08-06T07:05:37;156201.31;;;15.90;64.20
12913;BME280;6524;51.368;11.984;2023-08-06T07:10:38;156197.41;;;15.88;64.16
12913;BME280;6524;51.368;11.984;2023-08-06T07:15:38;156226.19;;;15.99;63.99
12913;BME280;6524;51.368;11.984;2023-08-06T07:20:38;156321.91;;;16.37;61.98
12913;BME280;6524;51.368;11.984;2023-08-06T07:25:39;156350.84;;;16.48;61.86
12913;BME280;6524;51.368;11.984;2023-08-06T07:30:40;156342.97;;;16.45;62.34
12913;BME280;6524;51.368;11.984;2023-08-06T07:35:40;156352.13;;;16.49;61.75
12913;BME280;6524;51.368;11.984;2023-08-06T07:40:41;156377.06;;;16.58;61.79
12913;BME280;6524;51.368;11.984;2023-08-06T07:45:42;156392.78;;;16.64;61.73
12913;BME280;6524;51.368;11.984;2023-08-06T07:50:42;156436.06;;;16.81;60.70
12913;BME280;6524;51.368;11.984;2023-08-06T07:55:50;156394.09;;;16.65;61.13
12913;BME280;6524;51.368;11.984;2023-08-06T08:00:51;156269.50;;;16.16;62.27
12913;BME280;6524;51.368;11.984;2023-08-06T08:05:55;156215.72;;;15.95;63.40
12913;BME280;6524;51.368;11.984;2023-08-06T08:10:57;156227.50;;;16.00;62.93
12913;BME280;6524;51.368;11.984;2023-08-06T08:16:00;156276.00;;;16.19;61.70
12913;BME280;6524;51.368;11.984;2023-08-06T08:21:01;156345.56;;;16.46;61.83
12913;BME280;6524;51.368;11.984;2023-08-06T08:26:01;156390.19;;;16.63;60.85
12913;BME280;6524;51.368;11.984;2023-08-06T08:31:02;156437.34;;;16.82;60.00
12913;BME280;6524;51.368;11.984;2023-08-06T08:36:03;156392.78;;;16.64;59.52
12913;BME280;6524;51.368;11.984;2023-08-06T08:41:03;156429.47;;;16.79;59.37
12913;BME280;6524;51.368;11.984;2023-08-06T08:46:05;156487.25;;;17.01;58.33
12913;BME280;6524;51.368;11.984;2023-08-06T08:51:06;156563.34;;;17.31;57.46
12913;BME280;6524;51.368;11.984;2023-08-06T08:56:08;156505.59;;;17.08;58.17
12913;BME280;6524;51.368;11.984;2023-08-06T09:01:11;156387.53;;;16.62;59.06
12913;BME280;6524;51.368;11.984;2023-08-06T09:06:12;156365.22;;;16.54;59.01
12913;BME280;6524;51.368;11.984;2023-08-06T09:11:14;156379.66;;;16.59;59.47
12913;BME280;6524;51.368;11.984;2023-08-06T09:16:15;156463.63;;;16.92;58.50
12913;BME280;6524;51.368;11.984;2023-08-06T09:21:15;156509.50;;;17.10;57.93
12913;BME280;6524;51.368;11.984;2023-08-06T09:26:16;156555.47;;;17.28;56.19
12913;BME280;6524;51.368;11.984;2023-08-06T09:31:17;156677.50;;;17.75;55.64
12913;BME280;6524;51.368;11.984;2023-08-06T09:36:17;156773.38;;;18.13;54.41
12913;BME280;6524;51.368;11.984;2023-08-06T09:41:27;156726.09;;;17.94;54.46
12913;BME280;6524;51.368;11.984;2023-08-06T09:46:32;156954.63;;;18.83;52.80
12913;BME280;6524;51.368;11.984;2023-08-06T09:51:32;157091.28;;;19.36;51.89
12913;BME280;6524;51.368;11.984;2023-08-06T09:56:34;157099.16;;;19.39;50.12
12913;BME280;6524;51.368;11.984;2023-08-06T10:01:37;157022.91;;;19.10;51.30
12913;BME280;6524;51.368;11.984;2023-08-06T10:06:40;157128.03;;;19.51;50.71
12913;BME280;6524;51.368;11.984;2023-08-06T10:11:42;157188.50;;;19.74;49.59
12913;BME280;6524;51.368;11.984;2023-08-06T10:16:44;157218.72;;;19.86;49.07
12913;BME280;6524;51.368;11.984;2023-08-06T10:22:10;157296.28;;;20.16;48.14
12913;BME280;6524;51.368;11.984;2023-08-06T10:27:19;157256.84;;;20.01;48.24
12913;BME280;6524;51.368;11.984;2023-08-06T10:32:21;157235.88;;;19.93;48.44
12913;BME280;6524;51.368;11.984;2023-08-06T10:37:22;157262.13;;;20.03;47.88
12913;BME280;6524;51.368;11.984;2023-08-06T10:42:27;157196.44;;;19.77;48.00
12913;BME280;6524;51.368;11.984;2023-08-06T10:47:28;157384.41;;;20.50;45.83
12913;BME280;6524;51.368;11.984;2023-08-06T10:52:28;157552.75;;;21.16;43.92
12913;BME280;6524;51.368;11.984;2023-08-06T10:57:29;157655.34;;;21.56;43.95
12913;BME280;6524;51.368;11.984;2023-08-06T11:02:33;157646.09;;;21.52;42.92
12913;BME280;6524;51.368;11.984;2023-08-06T11:07:35;157598.81;;;21.34;42.42
12913;BME280;6524;51.368;11.984;2023-08-06T11:12:35;157711.97;;;21.78;40.51
12913;BME280;6524;51.368;11.984;2023-08-06T11:17:36;157785.63;;;22.06;40.32
12913;BME280;6524;51.368;11.984;2023-08-06T11:22:38;158033.13;;;23.02;36.86
12913;BME280;6524;51.368;11.984;2023-08-06T11:27:38;157998.91;;;22.89;36.77
12913;BME280;6524;51.368;11.984;2023-08-06T11:32:48;158270.28;;;23.94;36.50
12913;BME280;6524;51.368;11.984;2023-08-06T11:37:48;158099.00;;;23.28;35.80
12913;BME280;6524;51.368;11.984;2023-08-06T11:42:50;157688.28;;;21.68;39.17
12913;BME280;6524;51.368;11.984;2023-08-06T11:47:51;157605.34;;;21.36;39.94
12913;BME280;6524;51.368;11.984;2023-08-06T11:52:57;157604.03;;;21.36;41.58
12913;BME280;6524;51.368;11.984;2023-08-06T11:57:58;157543.56;;;21.12;42.08
12913;BME280;6524;51.368;11.984;2023-08-06T12:02:59;157580.34;;;21.26;41.52
12913;BME280;6524;51.368;11.984;2023-08-06T12:08:01;157575.13;;;21.24;39.93
12913;BME280;6524;51.368;11.984;2023-08-06T12:13:02;157569.84;;;21.22;40.69
12913;BME280;6524;51.368;11.984;2023-08-06T12:18:03;157751.44;;;21.93;39.34
12913;BME280;6524;51.368;11.984;2023-08-06T12:23:04;157885.69;;;22.45;37.78
12913;BME280;6524;51.368;11.984;2023-08-06T12:28:04;157960.69;;;22.74;36.90
12913;BME280;6524;51.368;11.984;2023-08-06T12:33:09;158045.00;;;23.07;37.18
12913;BME280;6524;51.368;11.984;2023-08-06T12:38:10;158167.50;;;23.54;35.67
12913;BME280;6524;51.368;11.984;2023-08-06T12:43:10;158527.25;;;24.94;33.43
12913;BME280;6524;51.368;11.984;2023-08-06T12:48:10;158647.22;;;25.40;31.80
12913;BME280;6524;51.368;11.984;2023-08-06T12:53:14;158594.50;;;25.20;32.30
12913;BME280;6524;51.368;11.984;2023-08-06T12:58:14;158746.16;;;25.79;31.08
12913;BME280;6524;51.368;11.984;2023-08-06T13:03:21;158747.47;;;25.79;31.84
12913;BME280;6524;51.368;11.984;2023-08-06T13:08:21;158874.06;;;26.28;31.07
12913;BME280;6524;51.368;11.984;2023-08-06T13:13:21;158928.16;;;26.49;31.85
12913;BME280;6524;51.368;11.984;2023-08-06T13:18:22;158790.97;;;25.96;31.13
12913;BME280;6524;51.368;11.984;2023-08-06T13:23:22;158694.72;;;25.59;32.09
12913;BME280;6524;51.368;11.984;2023-08-06T13:28:24;158651.19;;;25.42;31.67
12913;BME280;6524;51.368;11.984;2023-08-06T13:33:24;158692.09;;;25.58;32.33
12913;BME280;6524;51.368;11.984;2023-08-06T13:38:26;158820.06;;;26.07;32.21
12913;BME280;6524;51.368;11.984;2023-08-06T13:43:27;158615.63;;;25.28;33.39
12913;BME280;6524;51.368;11.984;2023-08-06T13:48:33;158412.56;;;24.49;33.59
12913;BME280;6524;51.368;11.984;2023-08-06T13:53:35;158483.75;;;24.77;33.15
12913;BME280;6524;51.368;11.984;2023-08-06T13:58:41;158464.00;;;24.69;32.77
12913;BME280;6524;51.368;11.984;2023-08-06T14:03:42;158496.94;;;24.82;31.91
12913;BME280;6524;51.368;11.984;2023-08-06T14:08:42;158518.00;;;24.90;32.39
12913;BME280;6524;51.368;11.984;2023-08-06T14:13:42;158474.53;;;24.74;31.88
12913;BME280;6524;51.368;11.984;2023-08-06T14:18:43;158528.56;;;24.94;33.11
12913;BME280;6524;51.368;11.984;2023-08-06T14:23:44;158510.09;;;24.87;32.24
12913;BME280;6524;51.368;11.984;2023-08-06T14:28:44;158664.38;;;25.47;33.30
12913;BME280;6524;51.368;11.984;2023-08-06T14:33:46;158618.25;;;25.29;34.01
12913;BME280;6524;51.368;11.984;2023-08-06T14:38:47;158597.13;;;25.21;33.38
12913;BME280;6524;51.368;11.984;2023-08-06T14:43:51;158481.13;;;24.76;32.11
12913;BME280;6524;51.368;11.984;2023-08-06T14:48:52;158304.53;;;24.08;32.71
12913;BME280;6524;51.368;11.984;2023-08-06T14:53:52;158301.91;;;24.07;32.79
12913;BME280;6524;51.368;11.984;2023-08-06T14:58:53;158287.41;;;24.01;33.48
12913;BME280;6524;51.368;11.984;2023-08-06T15:03:53;158163.56;;;23.53;33.17
12913;BME280;6524;51.368;11.984;2023-08-06T15:08:54;158110.81;;;23.32;32.59
12913;BME280;6524;51.368;11.984;2023-08-06T15:13:58;157987.09;;;22.84;33.12
12913;BME280;6524;51.368;11.984;2023-08-06T15:19:01;157996.31;;;22.88;33.87
12913;BME280;6524;51.368;11.984;2023-08-06T15:24:08;157954.13;;;22.72;33.42
12913;BME280;6524;51.368;11.984;2023-08-06T15:29:08;157967.28;;;22.77;34.33
12913;BME280;6524;51.368;11.984;2023-08-06T15:34:25;157975.22;;;22.80;35.49
12913;BME280;6524;51.368;11.984;2023-08-06T15:39:32;157897.53;;;22.50;35.44
12913;BME280;6524;51.368;11.984;2023-08-06T15:44:36;157726.41;;;21.83;40.05
12913;BME280;6524;51.368;11.984;2023-08-06T15:49:36;157733.00;;;21.86;41.59
12913;BME280;6524;51.368;11.984;2023-08-06T15:54:37;157648.78;;;21.53;42.01
12913;BME280;6524;51.368;11.984;2023-08-06T15:59:40;157654.00;;;21.55;42.46
12913;BME280;6524;51.368;11.984;2023-08-06T16:04:41;157614.59;;;21.40;43.21
12913;BME280;6524;51.368;11.984;2023-08-06T16:09:42;157417.28;;;20.63;43.59
12913;BME280;6524;51.368;11.984;2023-08-06T16:14:43;157402.78;;;20.57;44.16
12913;BME280;6524;51.368;11.984;2023-08-06T16:19:43;157413.34;;;20.62;43.58
12913;BME280;6524;51.368;11.984;2023-08-06T16:24:44;157369.94;;;20.45;43.86
12913;BME280;6524;51.368;11.984;2023-08-06T16:29:44;157093.91;;;19.37;48.62
12913;BME280;6524;51.368;11.984;2023-08-06T16:34:49;156783.91;;;18.17;54.20
12913;BME280;6524;51.368;11.984;2023-08-06T16:39:50;156463.63;;;16.92;62.44
12913;BME280;6524;51.368;11.984;2023-08-06T16:44:51;156045.31;;;15.29;67.88
12913;BME280;6524;51.368;11.984;2023-08-06T16:49:53;155848.75;;;14.52;72.40
12913;BME280;6524;51.368;11.984;2023-08-06T16:55:00;155716.47;;;14.01;75.89
12913;BME280;6524;51.368;11.984;2023-08-06T17:00:01;155711.22;;;13.99;77.63
12913;BME280;6524;51.368;11.984;2023-08-06T17:05:04;155653.63;;;13.76;78.42
12913;BME280;6524;51.368;11.984;2023-08-06T17:10:09;155504.34;;;13.18;77.78
12913;BME280;6524;51.368;11.984;2023-08-06T17:15:09;155514.84;;;13.22;76.57
12913;BME280;6524;51.368;11.984;2023-08-06T17:56:21;155483.44;;;13.10;80.85
12913;BME280;6524;51.368;11.984;2023-08-06T18:01:21;155619.59;;;13.63;78.48
12913;BME280;6524;51.368;11.984;2023-08-06T18:06:22;155593.38;;;13.53;78.22
12913;BME280;6524;51.368;11.984;2023-08-06T18:11:22;155609.09;;;13.59;78.61
12913;BME280;6524;51.368;11.984;2023-08-06T18:16:22;155726.91;;;14.05;76.84
12913;BME280;6524;51.368;11.984;2023-08-06T18:21:23;155766.25;;;14.20;77.81
12913;BME280;6524;51.368;11.984;2023-08-06T18:26:23;155751.78;;;14.14;77.93
12913;BME280;6524;51.368;11.984;2023-08-06T18:31:24;155745.22;;;14.12;77.02
12913;BME280;6524;51.368;11.984;2023-08-06T18:36:24;155687.63;;;13.89;78.41
12913;BME280;6524;51.368;11.984;2023-08-06T18:41:25;155658.88;;;13.78;79.02
12913;BME280;6524;51.368;11.984;2023-08-06T18:46:26;155577.66;;;13.46;79.95
12913;BME280;6524;51.368;11.984;2023-08-06T18:51:26;155510.91;;;13.20;82.16
12913;BME280;6524;51.368;11.984;2023-08-06T18:56:27;155610.44;;;13.59;80.30
12913;BME280;6524;51.368;11.984;2023-08-06T19:01:27;155616.94;;;13.62;80.61
12913;BME280;6524;51.368;11.984;2023-08-06T19:06:27;155476.88;;;13.07;80.81
12913;BME280;6524;51.368;11.984;2023-08-06T19:11:29;155415.38;;;12.83;78.00
12913;BME280;6524;51.368;11.984;2023-08-06T19:16:29;155368.28;;;12.65;78.08
12913;BME280;6524;51.368;11.984;2023-08-06T19:21:29;155360.44;;;12.62;78.00
12913;BME280;6524;51.368;11.984;2023-08-06T19:26:30;155329.00;;;12.49;79.10
12913;BME280;6524;51.368;11.984;2023-08-06T19:31:30;155317.25;;;12.45;80.04
12913;BME280;6524;51.368;11.984;2023-08-06T19:36:31;155366.97;;;12.64;78.11
12913;BME280;6524;51.368;11.984;2023-08-06T19:41:31;155380.09;;;12.69;78.68
12913;BME280;6524;51.368;11.984;2023-08-06T19:46:31;155406.22;;;12.79;78.14
12913;BME280;6524;51.368;11.984;2023-08-06T19:51:31;155391.84;;;12.74;78.45
12913;BME280;6524;51.368;11.984;2023-08-06T19:56:32;155406.22;;;12.79;77.88
12913;BME280;6524;51.368;11.984;2023-08-06T20:01:32;155446.78;;;12.95;78.11
12913;BME280;6524;51.368;11.984;2023-08-06T20:06:33;155406.22;;;12.79;79.54
12913;BME280;6524;51.368;11.984;2023-08-06T20:11:34;155410.19;;;12.81;79.66
12913;BME280;6524;51.368;11.984;2023-08-06T20:16:34;155444.19;;;12.94;79.06
12913;BME280;6524;51.368;11.984;2023-08-06T20:21:34;155457.22;;;12.99;79.18
12913;BME280;6524;51.368;11.984;2023-08-06T20:26:35;155509.59;;;13.20;78.50
12913;BME280;6524;51.368;11.984;2023-08-06T20:31:35;155548.91;;;13.35;78.23
12913;BME280;6524;51.368;11.984;2023-08-06T20:36:36;155563.31;;;13.41;78.01
12913;BME280;6524;51.368;11.984;2023-08-06T20:41:36;155554.16;;;13.37;78.06
12913;BME280;6524;51.368;11.984;2023-08-06T20:46:37;155585.53;;;13.49;77.59
12913;BME280;6524;51.368;11.984;2023-08-06T20:51:37;155590.78;;;13.52;78.10
12913;BME280;6524;51.368;11.984;2023-08-06T20:56:38;155616.94;;;13.62;78.21
12913;BME280;6524;51.368;11.984;2023-08-06T21:01:38;155627.44;;;13.66;78.44
12913;BME280;6524;51.368;11.984;2023-08-06T21:06:38;155596.03;;;13.54;78.67
12913;BME280;6524;51.368;11.984;2023-08-06T21:11:39;155588.19;;;13.51;79.73
12913;BME280;6524;51.368;11.984;2023-08-06T21:16:39;155590.78;;;13.52;79.07
12913;BME280;6524;51.368;11.984;2023-08-06T21:21:40;155590.78;;;13.52;79.51
12913;BME280;6524;51.368;11.984;2023-08-06T21:26:41;155546.25;;;13.34;79.48
12913;BME280;6524;51.368;11.984;2023-08-06T21:31:42;155504.34;;;13.18;80.06
12913;BME280;6524;51.368;11.984;2023-08-06T21:36:42;155534.47;;;13.30;80.07
12913;BME280;6524;51.368;11.984;2023-08-06T21:41:42;155472.94;;;13.06;80.25
12913;BME280;6524;51.368;11.984;2023-08-06T21:46:43;155440.22;;;12.93;80.40
12913;BME280;6524;51.368;11.984;2023-08-06T21:51:43;155423.22;;;12.86;80.32
12913;BME280;6524;51.368;11.984;2023-08-06T21:56:43;155452.03;;;12.97;79.70
12913;BME280;6524;51.368;11.984;2023-08-06T22:01:44;155391.84;;;12.74;80.80
12913;BME280;6524;51.368;11.984;2023-08-06T22:06:44;155365.69;;;12.64;81.89
12913;BME280;6524;51.368;11.984;2023-08-06T22:11:44;155305.50;;;12.40;81.91
12913;BME280;6524;51.368;11.984;2023-08-06T22:16:44;155314.63;;;12.44;82.70
12913;BME280;6524;51.368;11.984;2023-08-06T22:21:46;155317.25;;;12.45;82.08
12913;BME280;6524;51.368;11.984;2023-08-06T22:26:46;155343.44;;;12.55;81.37
12913;BME280;6524;51.368;11.984;2023-08-06T22:31:47;155304.16;;;12.40;81.88
12913;BME280;6524;51.368;11.984;2023-08-06T22:36:47;155359.13;;;12.61;80.97
12913;BME280;6524;51.368;11.984;2023-08-06T22:41:47;155302.84;;;12.39;82.13
12913;BME280;6524;51.368;11.984;2023-08-06T22:46:48;155302.84;;;12.39;82.84
12913;BME280;6524;51.368;11.984;2023-08-06T22:51:48;155301.53;;;12.39;82.52
12913;BME280;6524;51.368;11.984;2023-08-06T22:56:50;155189.09;;;11.95;83.87
12913;BME280;6524;51.368;11.984;2023-08-06T23:01:51;155232.22;;;12.11;83.28
12913;BME280;6524;51.368;11.984;2023-08-06T23:06:52;155182.53;;;11.92;83.84
12913;BME280;6524;51.368;11.984;2023-08-06T23:11:52;155193.03;;;11.96;84.75
12913;BME280;6524;51.368;11.984;2023-08-06T23:16:52;155246.63;;;12.17;83.71
12913;BME280;6524;51.368;11.984;2023-08-06T23:21:53;155225.72;;;12.09;84.71
12913;BME280;6524;51.368;11.984;2023-08-06T23:26:53;155279.31;;;12.30;83.13
12913;BME280;6524;51.368;11.984;2023-08-06T23:31:54;155208.69;;;12.02;85.22
12913;BME280;6524;51.368;11.984;2023-08-06T23:36:54;155195.63;;;11.97;84.79
